Time;durP1;ratioP1;P1;durP2;ratioP2;P2;SDS_P1;SDS_P2;PMS_P1;PMS_P2;Temp;Humidity;BMP_temperature;BMP_pressure;BME280_temperature;BME280_humidity;BME280_pressure;Samples;Min_cycle;Max_cycle;Signal;HPM_P1;HPM_P2
2022/04/20 00:02:14;;;;;;;6.43;5.82;;;10.60;61.00;;;;;;5134983;27;20232;-68
2022/04/20 00:04:41;;;;;;;6.82;6.22;;;10.60;61.30;;;;;;5134611;27;20666;-68
2022/04/20 00:07:09;;;;;;;6.10;5.50;;;10.60;61.40;;;;;;5134981;27;20228;-68
2022/04/20 00:09:35;;;;;;;7.30;6.60;;;10.70;61.70;;;;;;5134977;27;20211;-68
2022/04/20 00:12:02;;;;;;;6.82;6.13;;;10.60;62.30;;;;;;5134673;27;20232;-68
2022/04/20 00:14:30;;;;;;;7.15;6.55;;;10.50;62.70;;;;;;5134742;27;20197;-67
2022/04/20 00:16:57;;;;;;;8.00;7.20;;;10.50;63.80;;;;;;5134794;27;20621;-68
2022/04/20 00:19:24;;;;;;;8.30;7.40;;;10.30;64.20;;;;;;5134818;27;20200;-68
2022/04/20 00:21:52;;;;;;;8.05;7.32;;;10.10;65.10;;;;;;5134699;27;20702;-68
2022/04/20 00:24:19;;;;;;;7.72;6.95;;;10.20;66.10;;;;;;5134631;27;20201;-68
2022/04/20 00:26:46;;;;;;;8.02;7.10;;;10.20;67.20;;;;;;5134732;27;20291;-68
2022/04/20 00:29:12;;;;;;;9.73;7.97;;;10.20;67.60;;;;;;5134465;27;20746;-68
2022/04/20 00:31:41;;;;;;;8.82;8.02;;;10.10;68.00;;;;;;5134580;27;20229;-68
2022/04/20 00:34:08;;;;;;;9.80;8.90;;;10.10;68.60;;;;;;5134190;27;20212;-68
2022/04/20 00:36:35;;;;;;;9.45;8.57;;;10.10;69.30;;;;;;5134624;28;20197;-68
2022/04/20 00:39:02;;;;;;;9.60;8.68;;;9.90;71.20;;;;;;5134427;28;20230;-68
2022/04/20 00:41:29;;;;;;;9.90;9.00;;;9.90;72.00;;;;;;5134509;28;20201;-68
2022/04/20 00:43:56;;;;;;;10.45;8.60;;;10.00;71.10;;;;;;5134489;27;20200;-68
2022/04/20 00:46:25;;;;;;;9.40;8.50;;;9.90;72.70;;;;;;5134528;28;20201;-68
2022/04/20 00:48:53;;;;;;;10.05;8.52;;;10.00;72.00;;;;;;5134466;28;20197;-68
2022/04/20 00:51:21;;;;;;;9.55;8.60;;;10.00;72.10;;;;;;5134451;28;20287;-68
2022/04/20 00:53:47;;;;;;;9.88;8.88;;;10.00;72.70;;;;;;5134572;28;20201;-67
2022/04/20 00:56:14;;;;;;;9.40;8.50;;;10.10;71.70;;;;;;5134422;28;20565;-68
2022/04/20 00:58:42;;;;;;;10.02;8.85;;;10.20;71.80;;;;;;5134332;28;20228;-68
2022/04/20 01:01:10;;;;;;;9.77;8.88;;;10.20;71.30;;;;;;5134575;28;20200;-68
2022/04/20 01:03:37;;;;;;;9.80;8.90;;;10.30;71.20;;;;;;5134124;28;20220;-68
2022/04/20 01:06:07;;;;;;;9.30;8.40;;;10.30;71.30;;;;;;5134325;28;20201;-68
2022/04/20 01:08:34;;;;;;;9.18;8.43;;;10.30;71.50;;;;;;5138026;27;20610;-68
2022/04/20 01:11:01;;;;;;;9.95;9.05;;;10.30;71.90;;;;;;5138386;27;20197;-68
2022/04/20 01:13:28;;;;;;;9.60;8.68;;;10.30;72.20;;;;;;5138194;27;20311;-68
2022/04/20 01:15:55;;;;;;;10.27;9.23;;;10.30;72.30;;;;;;5138737;27;20201;-68
2022/04/20 01:18:22;;;;;;;9.48;8.63;;;10.30;72.60;;;;;;5138146;27;20594;-68
2022/04/20 01:20:50;;;;;;;9.55;8.65;;;10.20;73.50;;;;;;5138253;27;20233;-68
2022/04/20 01:23:17;;;;;;;8.90;8.10;;;10.20;72.50;;;;;;5138188;27;20227;-68
2022/04/20 01:25:44;;;;;;;9.35;8.48;;;10.10;72.50;;;;;;5138089;27;20197;-67
2022/04/20 01:28:11;;;;;;;9.82;8.90;;;10.10;73.10;;;;;;5137934;27;20277;-68
2022/04/20 01:30:37;;;;;;;9.30;8.40;;;10.10;74.00;;;;;;5137916;27;20294;-68
2022/04/20 01:33:04;;;;;;;9.07;8.30;;;10.00;74.10;;;;;;5137499;27;20702;-68
2022/04/20 01:35:31;;;;;;;10.07;9.18;;;9.90;75.70;;;;;;5137931;27;20211;-68
2022/04/20 01:37:59;;;;;;;9.88;8.98;;;9.80;76.40;;;;;;5137816;27;20224;-68
2022/04/20 01:40:26;;;;;;;8.98;8.10;;;9.80;76.60;;;;;;5137866;27;20614;-67
2022/04/20 01:42:53;;;;;;;9.60;8.70;;;9.70;76.50;;;;;;5137544;27;20226;-68
2022/04/20 01:45:20;;;;;;;8.13;7.45;;;9.70;76.30;;;;;;5137387;27;20204;-68
2022/04/20 01:47:47;;;;;;;9.15;8.27;;;9.60;76.70;;;;;;5137949;27;20197;-68
2022/04/20 01:50:13;;;;;;;9.40;8.43;;;9.60;77.00;;;;;;5137534;27;20208;-68
2022/04/20 01:52:40;;;;;;;9.85;8.80;;;9.60;77.00;;;;;;5137606;27;20585;-68
2022/04/20 01:55:09;;;;;;;8.30;7.60;;;9.50;77.60;;;;;;5137408;27;20291;-68
2022/04/20 01:57:36;;;;;;;8.80;8.00;;;9.50;78.20;;;;;;5137390;27;20207;-68
2022/04/20 02:00:04;;;;;;;9.65;8.70;;;9.50;78.70;;;;;;5137437;27;20208;-68
2022/04/20 02:02:35;;;;;;;8.57;7.78;;;9.30;78.70;;;;;;5137407;27;20317;-68
2022/04/20 02:05:03;;;;;;;9.05;8.27;;;9.30;79.10;;;;;;5137271;27;20208;-67
2022/04/20 02:07:31;;;;;;;8.48;7.78;;;9.30;79.50;;;;;;5137329;27;20204;-68
2022/04/20 02:09:58;;;;;;;9.00;8.15;;;9.30;79.90;;;;;;5137221;27;20204;-67
2022/04/20 02:12:27;;;;;;;9.23;8.25;;;9.30;80.50;;;;;;5137156;27;20690;-67
2022/04/20 02:14:54;;;;;;;9.65;8.75;;;9.20;80.40;;;;;;5137002;27;20201;-67
2022/04/20 02:17:22;;;;;;;9.80;8.90;;;9.20;80.80;;;;;;5137138;27;20201;-67
2022/04/20 02:19:48;;;;;;;9.05;8.25;;;9.20;81.60;;;;;;5136424;27;20235;-67
2022/04/20 02:22:15;;;;;;;8.63;7.93;;;9.10;81.80;;;;;;5136980;27;20221;-68
2022/04/20 02:24:43;;;;;;;8.60;7.70;;;9.10;81.70;;;;;;5136818;27;20201;-67
2022/04/20 02:27:10;;;;;;;8.02;7.22;;;9.10;82.00;;;;;;5136989;27;20314;-67
2022/04/20 02:29:39;;;;;;;9.05;7.80;;;9.10;82.20;;;;;;5136846;27;20222;-67
2022/04/20 02:32:07;;;;;;;9.48;8.35;;;9.10;82.30;;;;;;5136569;27;20270;-67
2022/04/20 02:34:34;;;;;;;9.13;8.25;;;8.90;82.30;;;;;;5136779;27;20200;-67
2022/04/20 02:37:01;;;;;;;9.75;8.75;;;8.90;82.80;;;;;;5136711;27;20235;-68
2022/04/20 02:39:28;;;;;;;8.82;7.95;;;8.90;82.60;;;;;;5136582;27;20573;-68
2022/04/20 02:41:55;;;;;;;9.40;8.52;;;9.00;83.00;;;;;;5136616;27;20556;-67
2022/04/20 02:44:22;;;;;;;8.55;7.63;;;8.90;83.40;;;;;;5136426;27;20253;-67
2022/04/20 02:46:51;;;;;;;8.00;7.30;;;8.90;83.10;;;;;;5136442;27;20207;-67
2022/04/20 02:49:17;;;;;;;9.10;8.25;;;8.80;82.60;;;;;;5136307;27;20594;-67
2022/04/20 02:51:44;;;;;;;8.93;8.00;;;8.70;82.90;;;;;;5136368;27;20225;-67
2022/04/20 02:54:11;;;;;;;8.80;7.80;;;8.60;83.20;;;;;;5136000;27;20211;-67
2022/04/20 02:56:39;;;;;;;9.32;8.43;;;8.50;83.80;;;;;;5136357;27;20291;-67
2022/04/20 02:59:06;;;;;;;8.40;7.65;;;8.50;84.20;;;;;;5136159;27;20220;-67
2022/04/20 03:01:33;;;;;;;8.80;8.00;;;8.50;85.30;;;;;;5136237;27;20242;-67
2022/04/20 03:04:01;;;;;;;8.63;7.82;;;8.40;85.50;;;;;;5136068;27;20307;-67
2022/04/20 03:06:29;;;;;;;8.75;7.95;;;8.40;85.10;;;;;;5135945;27;20661;-67
2022/04/20 03:08:56;;;;;;;9.02;8.13;;;8.40;85.10;;;;;;5135942;27;20197;-67
2022/04/20 03:11:23;;;;;;;8.70;7.80;;;8.30;85.50;;;;;;5135938;27;20207;-68
2022/04/20 03:13:50;;;;;;;8.23;7.45;;;8.30;85.40;;;;;;5135784;27;20200;-67
2022/04/20 03:16:17;;;;;;;7.57;6.88;;;8.20;85.30;;;;;;5135920;27;20677;-67
2022/04/20 03:18:44;;;;;;;9.05;8.15;;;8.20;86.00;;;;;;5135708;27;20224;-67
2022/04/20 03:21:12;;;;;;;8.65;7.85;;;8.20;85.90;;;;;;5135938;27;20558;-67
2022/04/20 03:23:39;;;;;;;8.85;8.05;;;8.10;86.00;;;;;;5135409;27;20221;-67
2022/04/20 03:26:06;;;;;;;8.88;7.97;;;8.00;86.60;;;;;;5135795;27;20292;-67
2022/04/20 03:28:33;;;;;;;9.00;8.10;;;7.80;88.70;;;;;;5135480;27;20201;-68
2022/04/20 03:31:00;;;;;;;9.50;8.60;;;7.60;90.20;;;;;;5134802;27;20212;-68
2022/04/20 03:33:28;;;;;;;10.13;9.02;;;7.50;91.00;;;;;;5135428;27;20216;-67
2022/04/20 03:35:55;;;;;;;9.77;8.77;;;7.40;91.40;;;;;;5135530;27;20239;-67
2022/04/20 03:38:23;;;;;;;9.38;8.45;;;7.30;91.60;;;;;;5135475;27;20223;-68
2022/04/20 03:40:50;;;;;;;9.75;8.73;;;7.30;91.70;;;;;;5135504;27;20205;-67
2022/04/20 03:43:17;;;;;;;9.75;8.75;;;7.30;91.80;;;;;;5135321;27;20311;-68
2022/04/20 03:45:44;;;;;;;8.98;8.07;;;7.30;91.90;;;;;;5135573;27;20201;-68
2022/04/20 03:48:11;;;;;;;9.27;8.38;;;7.30;91.90;;;;;;5135392;27;20200;-67
2022/04/20 03:50:37;;;;;;;10.55;8.70;;;7.20;91.80;;;;;;5135352;27;20207;-67
2022/04/20 03:53:04;;;;;;;9.00;8.15;;;7.20;92.00;;;;;;5135131;27;20227;-67
2022/04/20 03:55:33;;;;;;;9.80;8.90;;;7.20;92.10;;;;;;5135261;27;20257;-67
2022/04/20 03:58:00;;;;;;;9.88;8.98;;;7.20;92.30;;;;;;5135484;27;20197;-68
2022/04/20 04:00:28;;;;;;;8.85;7.95;;;7.10;92.30;;;;;;5135107;27;20202;-67
2022/04/20 04:02:55;;;;;;;8.88;8.07;;;7.10;92.30;;;;;;5135160;27;20246;-67
2022/04/20 04:05:22;;;;;;;9.50;8.40;;;7.10;92.40;;;;;;5134999;27;20670;-67
2022/04/20 04:07:49;;;;;;;10.80;9.70;;;7.10;92.50;;;;;;5135291;27;20670;-67
2022/04/20 04:10:16;;;;;;;9.50;8.60;;;7.00;93.00;;;;;;5135047;27;20562;-67
2022/04/20 04:12:44;;;;;;;8.75;7.90;;;7.00;93.30;;;;;;5134780;27;20582;-67
2022/04/20 04:15:12;;;;;;;9.02;8.13;;;6.90;93.30;;;;;;5134759;27;20207;-67
2022/04/20 04:17:38;;;;;;;9.10;8.20;;;6.90;93.20;;;;;;5134863;27;20300;-68
2022/04/20 04:20:07;;;;;;;8.63;7.82;;;6.90;93.50;;;;;;5134832;27;20228;-67
2022/04/20 04:22:36;;;;;;;9.63;7.95;;;6.90;93.50;;;;;;5134644;27;20307;-67
2022/04/20 04:25:02;;;;;;;8.80;7.72;;;7.00;94.10;;;;;;5134649;27;20200;-67
2022/04/20 04:27:29;;;;;;;9.05;8.15;;;7.10;94.00;;;;;;5134859;27;20295;-67
2022/04/20 04:29:58;;;;;;;8.45;7.65;;;7.10;94.10;;;;;;5134540;27;20214;-67
2022/04/20 04:32:25;;;;;;;10.02;8.95;;;7.20;94.20;;;;;;5134719;27;20223;-67
2022/04/20 04:34:52;;;;;;;9.55;8.65;;;7.20;94.20;;;;;;5134543;27;20196;-67
2022/04/20 04:37:18;;;;;;;9.85;8.85;;;7.20;93.90;;;;;;5134957;27;20196;-67
2022/04/20 04:39:46;;;;;;;11.93;8.73;;;7.20;93.80;;;;;;5134607;28;20248;-67
2022/04/20 04:42:12;;;;;;;9.23;8.32;;;7.20;93.90;;;;;;5134042;27;20635;-67
2022/04/20 04:44:39;;;;;;;9.80;8.80;;;7.10;94.20;;;;;;5134300;28;20196;-67
2022/04/20 04:49:52;;;;;;;10.13;8.68;;;6.90;95.40;;;;;;5135125;28;20275;-67
2022/04/20 04:52:19;;;;;;;9.90;8.90;;;6.80;95.90;;;;;;5134405;28;20221;-67
2022/04/20 04:54:46;;;;;;;10.43;9.25;;;6.90;96.50;;;;;;5134101;28;20658;-67
2022/04/20 04:57:13;;;;;;;10.20;9.20;;;6.90;96.90;;;;;;5134526;28;20226;-67
2022/04/20 04:59:40;;;;;;;9.88;8.95;;;6.80;97.10;;;;;;5134391;28;20220;-67
2022/04/20 05:02:09;;;;;;;12.70;9.88;;;6.90;97.60;;;;;;5134289;28;20216;-68
2022/04/20 05:04:37;;;;;;;11.35;9.35;;;6.90;98.30;;;;;;5134095;28;20674;-67
2022/04/20 05:07:05;;;;;;;10.98;9.68;;;7.00;99.20;;;;;;5134261;28;20304;-68
2022/04/20 05:09:32;;;;;;;10.52;9.43;;;7.00;99.00;;;;;;5134731;28;20199;-68
2022/04/20 05:11:58;;;;;;;11.27;9.77;;;6.90;98.50;;;;;;5134220;28;20583;-68
2022/04/20 05:14:26;;;;;;;13.23;10.13;;;6.90;98.60;;;;;;5134344;28;20230;-67
2022/04/20 05:16:52;;;;;;;11.85;9.85;;;6.90;99.60;;;;;;5134504;28;20202;-68
2022/04/20 05:19:20;;;;;;;14.02;9.98;;;6.90;99.80;;;;;;5134131;28;20216;-68
2022/04/20 05:21:48;;;;;;;12.77;8.82;;;6.90;99.10;;;;;;5133865;28;20309;-68
2022/04/20 05:24:15;;;;;;;11.10;9.77;;;6.90;99.30;;;;;;5134074;28;20227;-68
2022/04/20 05:26:41;;;;;;;13.82;10.40;;;6.90;99.20;;;;;;5133992;28;20666;-68
2022/04/20 05:29:08;;;;;;;12.05;10.02;;;6.90;98.60;;;;;;5133839;28;20299;-68
2022/04/20 05:31:35;;;;;;;11.65;9.75;;;6.80;98.70;;;;;;5134076;28;20206;-67
2022/04/20 05:34:03;;;;;;;10.88;9.82;;;6.80;98.40;;;;;;5134062;27;20209;-68
2022/04/20 05:41:39;;;;;;;11.63;10.52;;;6.80;98.20;;;;;;5134535;28;20225;-68
2022/04/20 05:42:04;;;;;;;10.20;9.30;;;6.70;99.50;;;;;;5134099;28;20731;-68
2022/04/20 05:44:31;;;;;;;9.77;8.68;;;6.80;99.30;;;;;;5133902;28;20192;-68
2022/04/20 05:46:58;;;;;;;10.68;9.57;;;6.90;98.50;;;;;;5133999;28;20291;-68
2022/04/20 05:49:25;;;;;;;10.40;9.40;;;7.10;98.20;;;;;;5133972;28;20223;-68
2022/04/20 05:51:53;;;;;;;12.00;9.52;;;7.20;97.40;;;;;;5133895;28;20217;-68
2022/04/20 05:54:20;;;;;;;9.10;8.20;;;7.30;96.70;;;;;;5135099;27;20692;-68
2022/04/20 05:56:46;;;;;;;13.20;9.25;;;7.40;97.40;;;;;;5137806;27;20291;-67
2022/04/20 05:59:13;;;;;;;11.45;9.45;;;7.50;97.40;;;;;;5137400;27;20223;-68
2022/04/20 06:01:40;;;;;;;9.88;8.82;;;7.50;97.10;;;;;;5137395;27;20211;-68
2022/04/20 06:04:07;;;;;;;10.70;9.50;;;7.60;96.60;;;;;;5137286;27;20651;-67
2022/04/20 06:06:34;;;;;;;11.38;8.82;;;7.50;95.40;;;;;;5137347;27;20197;-68
2022/04/20 06:09:02;;;;;;;10.00;9.00;;;7.40;95.40;;;;;;5137314;27;20197;-67
2022/04/20 06:11:30;;;;;;;9.88;8.85;;;7.60;95.50;;;;;;5137227;27;20287;-68
2022/04/20 06:13:57;;;;;;;8.07;7.38;;;7.70;95.70;;;;;;5136825;27;20203;-68
2022/04/20 06:16:24;;;;;;;9.25;8.35;;;7.90;95.10;;;;;;5138366;27;20291;-68
2022/04/20 06:18:52;;;;;;;9.35;7.60;;;8.00;95.10;;;;;;5137576;27;20688;-68
2022/04/20 06:21:18;;;;;;;8.55;7.75;;;8.00;95.10;;;;;;5137063;27;20212;-68
2022/04/20 06:23:45;;;;;;;8.27;7.38;;;8.10;94.50;;;;;;5136871;27;20319;-69
2022/04/20 06:26:14;;;;;;;8.85;7.35;;;8.30;92.80;;;;;;5136874;27;20209;-68
2022/04/20 06:28:40;;;;;;;8.88;7.88;;;8.50;92.00;;;;;;5136656;27;20197;-68
2022/04/20 06:31:07;;;;;;;9.23;7.35;;;8.60;91.50;;;;;;5136985;27;20200;-68
2022/04/20 06:33:34;;;;;;;8.45;7.55;;;8.80;90.70;;;;;;5136702;27;20224;-69
2022/04/20 06:36:01;;;;;;;7.70;7.00;;;8.80;90.00;;;;;;5136803;27;20196;-68
2022/04/20 06:38:28;;;;;;;9.45;7.93;;;8.90;89.50;;;;;;5136686;27;20207;-68
2022/04/20 06:40:55;;;;;;;7.55;6.85;;;9.00;89.40;;;;;;5136582;27;20232;-68
2022/04/20 06:43:23;;;;;;;7.75;6.70;;;9.00;88.50;;;;;;5136578;27;20224;-68
2022/04/20 06:45:50;;;;;;;7.82;7.03;;;9.10;88.10;;;;;;5136633;27;20196;-68
2022/04/20 06:48:16;;;;;;;7.95;7.25;;;9.20;87.30;;;;;;5136567;27;20204;-68
2022/04/20 06:50:44;;;;;;;8.80;7.35;;;9.30;86.90;;;;;;5136756;27;20203;-68
2022/04/20 06:58:41;;;;;;;7.10;6.40;;;9.50;85.10;;;;;;5136749;27;20195;-69
2022/04/20 07:01:09;;;;;;;7.30;6.60;;;9.50;84.40;;;;;;5136715;27;20252;-69
2022/04/20 07:03:36;;;;;;;6.57;5.97;;;9.50;83.70;;;;;;5136754;27;20217;-69
2022/04/20 07:06:04;;;;;;;6.70;6.10;;;9.50;82.70;;;;;;5136753;27;20204;-69
2022/04/20 07:08:31;;;;;;;6.65;5.88;;;9.60;82.60;;;;;;5137036;27;20207;-69
2022/04/20 07:10:59;;;;;;;6.88;6.28;;;9.70;82.40;;;;;;5136895;27;20654;-69
2022/04/20 07:13:25;;;;;;;6.43;5.82;;;9.70;84.10;;;;;;5136817;27;20251;-69
2022/04/20 07:15:54;;;;;;;6.45;5.85;;;9.70;85.20;;;;;;5136371;27;20291;-68
2022/04/20 07:18:21;;;;;;;7.25;6.55;;;9.70;82.50;;;;;;5135967;27;20703;-68
2022/04/20 07:20:48;;;;;;;7.38;6.32;;;9.70;82.60;;;;;;5135596;27;20216;-68
2022/04/20 07:23:15;;;;;;;7.05;6.43;;;9.60;84.10;;;;;;5136038;27;20227;-69
2022/04/20 07:25:42;;;;;;;6.93;6.28;;;9.60;83.30;;;;;;5135868;27;20301;-69
2022/04/20 07:28:09;;;;;;;6.25;5.65;;;9.70;81.90;;;;;;5135787;27;20287;-68
2022/04/20 07:30:37;;;;;;;7.03;6.32;;;9.70;80.70;;;;;;5135414;27;20578;-69
2022/04/20 07:33:06;;;;;;;6.80;6.10;;;9.90;80.40;;;;;;5135255;27;20227;-69
2022/04/20 07:35:33;;;;;;;6.35;5.75;;;9.90;79.50;;;;;;5135840;27;20589;-69
2022/04/20 07:38:00;;;;;;;6.97;6.38;;;10.00;78.20;;;;;;5135624;27;20236;-68
2022/04/20 07:40:27;;;;;;;7.32;6.25;;;10.10;78.10;;;;;;5135580;27;20223;-69
2022/04/20 07:42:55;;;;;;;6.70;6.10;;;10.10;77.40;;;;;;5135439;27;20220;-68
2022/04/20 07:45:25;;;;;;;6.28;5.68;;;10.20;76.60;;;;;;5135252;27;20232;-69
2022/04/20 07:47:52;;;;;;;7.35;6.65;;;10.30;76.00;;;;;;5135220;27;20207;-69
2022/04/20 07:50:23;;;;;;;6.95;6.25;;;10.30;75.80;;;;;;5135192;27;20207;-68
2022/04/20 07:52:51;;;;;;;7.28;6.57;;;10.40;76.30;;;;;;5135492;27;20690;-68
2022/04/20 07:55:20;;;;;;;7.30;6.63;;;10.50;75.30;;;;;;5135091;27;20308;-68
2022/04/20 07:57:47;;;;;;;6.75;5.85;;;10.50;75.50;;;;;;5135169;27;20578;-69
2022/04/20 08:00:15;;;;;;;7.13;6.53;;;10.60;74.80;;;;;;5135128;27;20224;-68
2022/04/20 08:02:43;;;;;;;6.97;6.38;;;10.70;74.00;;;;;;5135101;27;20257;-69
2022/04/20 08:05:11;;;;;;;6.15;5.55;;;10.80;73.80;;;;;;5134817;27;20765;-68
2022/04/20 08:07:39;;;;;;;7.10;5.72;;;10.90;72.90;;;;;;5135441;27;20200;-68
2022/04/20 08:10:08;;;;;;;6.20;5.70;;;11.00;72.70;;;;;;5134907;27;20204;-68
2022/04/20 08:12:36;;;;;;;6.75;6.22;;;11.10;74.50;;;;;;5134857;27;20609;-68
2022/04/20 08:15:04;;;;;;;7.22;6.53;;;11.00;73.20;;;;;;5134754;27;20205;-69
2022/04/20 08:17:31;;;;;;;8.00;7.30;;;11.10;74.30;;;;;;5134229;27;20205;-68
2022/04/20 08:19:58;;;;;;;7.75;7.15;;;11.20;74.00;;;;;;5134751;27;20223;-68
2022/04/20 08:22:26;;;;;;;7.95;7.15;;;11.10;74.10;;;;;;5135116;27;20286;-69
2022/04/20 08:24:54;;;;;;;7.88;7.05;;;11.10;74.20;;;;;;5134612;27;20200;-69
2022/04/20 08:27:22;;;;;;;7.30;6.70;;;11.00;74.60;;;;;;5134746;27;20200;-68
2022/04/20 08:29:49;;;;;;;8.05;7.22;;;11.10;74.80;;;;;;5134411;27;20205;-68
2022/04/20 08:32:17;;;;;;;8.40;7.50;;;11.10;75.10;;;;;;5134452;27;20267;-68
2022/04/20 08:34:44;;;;;;;7.53;6.82;;;11.20;74.90;;;;;;5134297;27;20215;-68
2022/04/20 08:37:11;;;;;;;7.47;6.80;;;11.10;74.70;;;;;;5134662;27;20197;-68
2022/04/20 08:39:39;;;;;;;7.43;6.63;;;11.20;74.40;;;;;;5134496;27;20196;-68
2022/04/20 08:42:09;;;;;;;7.28;6.63;;;11.30;74.50;;;;;;5134565;28;20221;-68
2022/04/20 08:44:38;;;;;;;8.02;7.32;;;11.20;74.00;;;;;;5134464;28;20204;-68
2022/04/20 08:47:07;;;;;;;8.13;7.32;;;11.40;73.30;;;;;;5134366;28;20208;-68
2022/04/20 08:49:34;;;;;;;7.85;7.10;;;11.40;72.40;;;;;;5134510;28;20228;-68
2022/04/20 08:54:47;;;;;;;7.20;6.50;;;11.80;71.30;;;;;;5134233;28;20203;-68
2022/04/20 08:57:19;;;;;;;7.15;6.45;;;12.20;69.70;;;;;;5134459;28;20558;-68
2022/04/20 08:59:48;;;;;;;6.78;6.22;;;13.10;68.20;;;;;;5134458;27;20257;-69
2022/04/20 09:02:15;;;;;;;6.07;5.47;;;15.00;61.70;;;;;;5134385;27;20258;-68
2022/04/20 09:04:42;;;;;;;5.55;5.05;;;16.40;57.20;;;;;;5134207;28;20211;-69
2022/04/20 09:07:10;;;;;;;5.13;4.72;;;17.30;52.40;;;;;;5134388;28;20248;-69
2022/04/20 09:09:37;;;;;;;6.05;5.55;;;17.70;50.00;;;;;;5134377;28;20741;-69
2022/04/20 09:12:10;;;;;;;6.13;5.53;;;18.20;48.60;;;;;;5134524;28;20325;-69
2022/04/20 09:14:40;;;;;;;5.10;4.70;;;19.30;46.10;;;;;;5134230;28;20446;-69
2022/04/20 09:17:10;;;;;;;5.37;4.90;;;20.40;44.80;;;;;;5134298;27;20547;-66
2022/04/20 09:19:38;;;;;;;5.17;4.77;;;20.80;42.90;;;;;;5134497;28;20452;-67
2022/04/20 09:22:17;;;;;;;5.57;5.17;;;20.40;42.30;;;;;;5133992;28;20910;-66
2022/04/20 09:25:03;;;;;;;6.07;4.87;;;20.00;42.40;;;;;;5134100;28;20444;-66
2022/04/20 09:27:30;;;;;;;4.90;4.50;;;20.30;42.20;;;;;;5134134;27;20442;-66
2022/04/20 09:29:59;;;;;;;5.30;4.47;;;20.60;42.00;;;;;;5136622;27;20496;-67
2022/04/20 09:32:34;;;;;;;5.20;4.80;;;21.20;40.80;;;;;;5138040;27;20601;-67
2022/04/20 09:35:03;;;;;;;5.10;4.60;;;22.90;39.30;;;;;;5137991;27;20443;-67
2022/04/20 09:37:30;;;;;;;5.60;5.10;;;24.60;36.60;;;;;;5137859;27;20908;-67
2022/04/20 09:39:57;;;;;;;5.17;4.87;;;25.20;34.60;;;;;;5137793;27;20507;-67
2022/04/20 09:42:24;;;;;;;4.90;4.50;;;25.90;33.00;;;;;;5137849;27;20468;-67
2022/04/20 09:45:00;;;;;;;5.30;4.90;;;25.80;31.50;;;;;;5137648;27;20439;-67
2022/04/20 09:50:19;;;;;;;5.03;4.60;;;26.10;30.70;;;;;;5137788;27;20417;-67
2022/04/20 09:52:48;;;;;;;5.23;4.83;;;26.10;30.10;;;;;;5137700;27;20824;-67
2022/04/20 09:55:18;;;;;;;5.17;4.77;;;26.70;30.20;;;;;;5137324;27;20969;-67
2022/04/20 09:57:45;;;;;;;5.50;4.93;;;27.20;29.90;;;;;;5137614;27;20447;-67
2022/04/20 10:00:15;;;;;;;4.60;4.30;;;27.70;28.70;;;;;;5137488;27;20910;-67
2022/04/20 10:02:47;;;;;;;4.77;4.37;;;28.20;27.50;;;;;;5137330;27;20469;-68
2022/04/20 10:05:14;;;;;;;4.50;4.10;;;28.70;27.30;;;;;;5137301;27;20502;-67
2022/04/20 10:07:41;;;;;;;4.93;4.63;;;29.40;27.00;;;;;;5137394;27;20438;-67
2022/04/20 10:10:09;;;;;;;4.93;4.63;;;29.60;26.20;;;;;;5137328;27;20441;-67
2022/04/20 10:12:39;;;;;;;4.30;4.00;;;28.80;26.80;;;;;;5137094;27;20462;-67
2022/04/20 10:17:56;;;;;;;5.07;4.77;;;28.70;26.60;;;;;;5137132;27;20424;-67
2022/04/20 10:20:25;;;;;;;4.90;4.50;;;29.00;26.90;;;;;;5137829;27;20472;-67
2022/04/20 10:22:53;;;;;;;4.67;4.27;;;29.20;26.50;;;;;;5136908;27;20980;-67
2022/04/20 10:25:20;;;;;;;5.47;5.07;;;;;;;;;;5136846;27;20773;-67
2022/04/20 10:28:12;;;;;;;4.33;4.10;;;28.50;26.60;;;;;;5136930;27;20476;-67
2022/04/20 10:30:50;;;;;;;4.80;4.50;;;28.20;27.10;;;;;;5133740;27;20457;-67
2022/04/20 10:33:20;;;;;;;5.73;4.77;;;28.60;27.30;;;;;;5136815;27;20454;-67
2022/04/20 10:35:58;;;;;;;4.97;4.50;;;27.70;27.10;;;;;;5137325;27;20836;-67
2022/04/20 10:38:25;;;;;;;4.90;4.50;;;26.70;28.60;;;;;;5136799;27;20438;-67
2022/04/20 10:40:57;;;;;;;4.03;3.73;;;27.60;28.20;;;;;;5135899;27;21079;-67
2022/04/20 10:43:25;;;;;;;4.53;4.23;;;28.40;27.30;;;;;;5136214;27;20454;-68
2022/04/20 10:46:15;;;;;;;4.60;4.30;;;29.10;26.20;;;;;;5136714;27;20442;-68
2022/04/20 10:49:02;;;;;;;4.87;4.47;;;30.10;25.90;;;;;;5136573;27;20792;-68
2022/04/20 10:51:41;;;;;;;4.87;4.47;;;30.20;25.20;;;;;;5136477;27;20430;-68
2022/04/20 10:54:26;;;;;;;4.80;4.40;;;30.20;25.40;;;;;;5136404;27;21007;-67
2022/04/20 10:57:11;;;;;;;4.27;3.97;;;30.60;24.70;;;;;;5136377;27;20434;-67
2022/04/20 10:59:39;;;;;;;4.67;4.13;;;30.70;24.60;;;;;;5136462;27;20861;-67
2022/04/20 11:02:12;;;;;;;4.87;4.50;;;30.30;25.10;;;;;;5135940;27;20991;-67
2022/04/20 11:04:43;;;;;;;3.80;3.60;;;29.90;24.80;;;;;;5136188;27;20443;-67
2022/04/20 11:07:22;;;;;;;5.00;4.70;;;29.70;25.50;;;;;;5136481;27;20438;-67
2022/04/20 11:09:52;;;;;;;4.37;3.97;;;29.90;24.80;;;;;;5136176;27;20495;-67
2022/04/20 11:18:45;;;;;;;4.77;4.47;;;28.50;25.70;;;;;;5077969;27;20423;-67
2022/04/20 11:21:19;;;;;;;4.50;4.20;;;27.30;26.20;;;;;;5135773;27;20473;-67
2022/04/20 11:23:58;;;;;;;4.67;4.30;;;26.00;27.30;;;;;;5135756;27;20466;-67
2022/04/20 11:26:27;;;;;;;4.53;4.13;;;25.30;28.00;;;;;;5135580;27;20793;-67
2022/04/20 11:28:55;;;;;;;5.43;5.03;;;24.80;28.10;;;;;;5135673;27;20460;-67
2022/04/20 11:31:22;;;;;;;5.00;4.60;;;24.00;28.80;;;;;;5135736;27;20439;-66
2022/04/20 11:33:50;;;;;;;5.27;4.90;;;23.00;29.90;;;;;;5135500;27;20470;-67
2022/04/20 11:36:19;;;;;;;5.90;5.40;;;21.80;30.90;;;;;;5135636;27;20822;-66
2022/04/20 11:38:48;;;;;;;5.97;5.20;;;20.70;32.50;;;;;;5135591;27;20436;-66
2022/04/20 11:41:16;;;;;;;6.33;5.83;;;20.30;33.20;;;;;;5135456;27;20482;-67
2022/04/20 11:43:44;;;;;;;5.50;5.10;;;20.10;33.60;;;;;;5135371;27;20512;-68
2022/04/20 11:46:12;;;;;;;5.27;4.87;;;19.80;33.90;;;;;;5135318;27;20480;-68
2022/04/20 11:48:48;;;;;;;5.20;4.80;;;19.60;33.60;;;;;;5135394;27;20444;-67
2022/04/20 11:51:19;;;;;;;5.43;5.00;;;19.40;34.10;;;;;;5134593;27;20205;-67
2022/04/20 11:53:48;;;;;;;6.43;4.50;;;19.30;34.30;;;;;;5135155;27;20624;-68
2022/04/20 11:56:16;;;;;;;6.07;5.22;;;19.30;34.50;;;;;;5135293;27;20258;-67
2022/04/20 11:58:49;;;;;;;4.93;4.53;;;19.10;34.40;;;;;;5135060;27;20207;-67
2022/04/20 12:01:17;;;;;;;5.57;5.07;;;19.00;34.70;;;;;;5135085;27;20217;-67
2022/04/20 12:03:45;;;;;;;5.40;5.00;;;18.90;35.70;;;;;;5134795;27;20316;-68
2022/04/20 12:06:13;;;;;;;5.60;5.20;;;18.90;35.80;;;;;;5135422;27;20201;-67
2022/04/20 12:08:41;;;;;;;5.80;5.30;;;18.90;34.90;;;;;;5135215;27;20551;-67
2022/04/20 12:11:11;;;;;;;5.88;5.30;;;18.50;35.50;;;;;;5135033;27;20249;-67
2022/04/20 12:13:39;;;;;;;4.95;4.55;;;18.30;36.10;;;;;;5134582;27;20590;-67
2022/04/20 12:16:08;;;;;;;5.25;4.85;;;18.30;36.00;;;;;;5134913;27;20301;-68
2022/04/20 12:18:36;;;;;;;5.40;5.00;;;18.50;36.20;;;;;;5134908;27;20273;-68
2022/04/20 12:21:07;;;;;;;5.20;4.80;;;18.70;36.30;;;;;;5135020;27;20221;-67
2022/04/20 12:23:35;;;;;;;4.77;4.37;;;18.90;36.30;;;;;;5134600;27;20226;-67
2022/04/20 12:26:06;;;;;;;5.47;4.72;;;19.00;36.20;;;;;;5134768;27;20431;-67
2022/04/20 12:28:43;;;;;;;5.07;4.67;;;19.00;35.80;;;;;;5134526;27;20287;-68
2022/04/20 12:31:12;;;;;;;5.30;4.80;;;18.90;35.80;;;;;;5134991;27;20434;-67
2022/04/20 12:33:39;;;;;;;5.22;4.70;;;18.80;36.00;;;;;;5134445;27;20224;-68
2022/04/20 12:36:08;;;;;;;5.20;4.70;;;18.80;35.60;;;;;;5134918;27;20208;-67
2022/04/20 12:38:45;;;;;;;4.50;4.20;;;18.80;34.90;;;;;;5134586;27;20197;-67
2022/04/20 12:41:43;;;;;;;5.05;4.65;;;18.80;35.00;;;;;;5134386;28;20217;-68
2022/04/20 12:44:36;;;;;;;83.47;12.52;;;18.80;34.90;;;;;;5134375;28;20202;-67
2022/04/20 12:47:23;;;;;;;5.00;4.60;;;18.80;35.00;;;;;;5134459;28;20673;-67
2022/04/20 12:49:52;;;;;;;5.20;4.50;;;18.60;34.00;;;;;;5134107;28;20243;-67
2022/04/20 12:52:22;;;;;;;4.78;4.30;;;18.50;34.80;;;;;;5134709;28;20221;-67
2022/04/20 12:54:54;;;;;;;4.90;4.50;;;18.30;34.50;;;;;;5134440;28;20296;-67
2022/04/20 13:03:02;;;;;;;4.60;4.30;;;18.30;35.30;;;;;;5135218;27;20235;-68
2022/04/20 13:05:29;;;;;;;5.50;4.20;;;18.40;35.10;;;;;;5138662;27;20200;-67
2022/04/20 13:07:55;;;;;;;5.15;4.70;;;18.30;34.90;;;;;;5138607;27;20203;-67
2022/04/20 13:10:23;;;;;;;4.30;4.00;;;18.40;35.20;;;;;;5138485;27;20289;-67
2022/04/20 13:12:50;;;;;;;5.28;3.72;;;18.50;35.50;;;;;;5138441;27;20219;-67
2022/04/20 13:15:18;;;;;;;4.63;4.18;;;18.50;34.90;;;;;;5138309;27;20207;-67
2022/04/20 13:17:46;;;;;;;4.28;3.88;;;18.70;34.60;;;;;;5138360;27;20197;-67
2022/04/20 13:20:13;;;;;;;5.63;4.25;;;18.80;34.40;;;;;;5138394;27;20200;-67
2022/04/20 13:22:39;;;;;;;7.63;4.50;;;18.80;35.00;;;;;;5138024;27;20574;-67
2022/04/20 13:27:57;;;;;;;4.50;3.80;;;18.90;34.50;;;;;;5138130;27;20203;-67
2022/04/20 13:30:27;;;;;;;4.55;4.15;;;18.40;34.70;;;;;;5137803;27;20209;-67
2022/04/20 13:32:55;;;;;;;4.55;4.13;;;18.10;34.80;;;;;;5137795;27;20632;-67